sensor_id;sensor_type;location;lat;lon;timestamp;temperature;humidity
53904;DHT22;39812;52.430;16.936;2023-07-16T00:02:04;23.10;66.00
53904;DHT22;39812;52.430;16.936;2023-07-16T00:04:33;23.10;66.20
53904;DHT22;39812;52.430;16.936;2023-07-16T00:07:02;23.10;66.20
53904;DHT22;39812;52.430;16.936;2023-07-16T00:09:28;23.10;66.10
53904;DHT22;39812;52.430;16.936;2023-07-16T00:11:53;23.10;66.20
53904;DHT22;39812;52.430;16.936;2023-07-16T00:14:19;23.10;66.30
53904;DHT22;39812;52.430;16.936;2023-07-16T00:16:45;23.00;66.40
53904;DHT22;39812;52.430;16.936;2023-07-16T00:19:11;23.00;66.60
53904;DHT22;39812;52.430;16.936;2023-07-16T00:21:37;23.10;66.70
53904;DHT22;39812;52.430;16.936;2023-07-16T00:24:03;23.10;66.40
53904;DHT22;39812;52.430;16.936;2023-07-16T00:26:29;23.10;66.40
53904;DHT22;39812;52.430;16.936;2023-07-16T00:28:54;23.10;66.50
53904;DHT22;39812;52.430;16.936;2023-07-16T00:31:20;23.10;66.80
53904;DHT22;39812;52.430;16.936;2023-07-16T00:33:45;23.00;67.00
53904;DHT22;39812;52.430;16.936;2023-07-16T00:36:11;22.90;67.20
53904;DHT22;39812;52.430;16.936;2023-07-16T00:38:37;22.90;67.50
53904;DHT22;39812;52.430;16.936;2023-07-16T00:41:02;22.80;67.50
53904;DHT22;39812;52.430;16.936;2023-07-16T00:43:28;22.80;67.80
53904;DHT22;39812;52.430;16.936;2023-07-16T00:45:53;22.70;67.90
53904;DHT22;39812;52.430;16.936;2023-07-16T00:48:19;22.70;68.30
53904;DHT22;39812;52.430;16.936;2023-07-16T00:50:45;22.60;68.50
53904;DHT22;39812;52.430;16.936;2023-07-16T00:53:12;22.60;68.70
53904;DHT22;39812;52.430;16.936;2023-07-16T00:55:38;22.60;69.00
53904;DHT22;39812;52.430;16.936;2023-07-16T00:58:06;22.60;69.30
53904;DHT22;39812;52.430;16.936;2023-07-16T01:00:33;22.50;69.50
53904;DHT22;39812;52.430;16.936;2023-07-16T01:03:04;22.50;69.80
53904;DHT22;39812;52.430;16.936;2023-07-16T01:06:00;22.40;70.10
53904;DHT22;39812;52.430;16.936;2023-07-16T01:08:35;22.40;70.40
53904;DHT22;39812;52.430;16.936;2023-07-16T01:11:02;22.40;70.70
53904;DHT22;39812;52.430;16.936;2023-07-16T01:13:28;22.40;70.90
53904;DHT22;39812;52.430;16.936;2023-07-16T01:15:54;22.30;71.30
53904;DHT22;39812;52.430;16.936;2023-07-16T01:18:19;22.30;71.60
53904;DHT22;39812;52.430;16.936;2023-07-16T01:20:45;22.30;71.60
53904;DHT22;39812;52.430;16.936;2023-07-16T01:29:28;22.50;71.50
53904;DHT22;39812;52.430;16.936;2023-07-16T01:31:34;22.50;71.50
53904;DHT22;39812;52.430;16.936;2023-07-16T01:34:02;22.50;71.60
53904;DHT22;39812;52.430;16.936;2023-07-16T01:36:31;22.50;71.70
53904;DHT22;39812;52.430;16.936;2023-07-16T01:38:57;22.40;71.80
53904;DHT22;39812;52.430;16.936;2023-07-16T01:41:23;22.40;71.90
53904;DHT22;39812;52.430;16.936;2023-07-16T01:43:50;22.40;72.20
53904;DHT22;39812;52.430;16.936;2023-07-16T01:46:16;22.30;72.60
53904;DHT22;39812;52.430;16.936;2023-07-16T01:48:41;22.20;72.80
53904;DHT22;39812;52.430;16.936;2023-07-16T01:51:07;22.10;73.20
53904;DHT22;39812;52.430;16.936;2023-07-16T01:53:33;22.10;73.40
53904;DHT22;39812;52.430;16.936;2023-07-16T01:56:01;22.10;73.90
53904;DHT22;39812;52.430;16.936;2023-07-16T01:58:27;22.10;74.10
53904;DHT22;39812;52.430;16.936;2023-07-16T02:00:53;22.10;74.30
53904;DHT22;39812;52.430;16.936;2023-07-16T02:03:18;22.10;74.50
53904;DHT22;39812;52.430;16.936;2023-07-16T02:05:44;22.00;74.50
53904;DHT22;39812;52.430;16.936;2023-07-16T02:08:10;22.00;74.70
53904;DHT22;39812;52.430;16.936;2023-07-16T02:10:35;21.90;74.80
53904;DHT22;39812;52.430;16.936;2023-07-16T02:13:01;21.80;75.10
53904;DHT22;39812;52.430;16.936;2023-07-16T02:15:27;21.80;75.40
53904;DHT22;39812;52.430;16.936;2023-07-16T02:17:52;21.70;75.60
53904;DHT22;39812;52.430;16.936;2023-07-16T02:20:18;21.70;75.90
53904;DHT22;39812;52.430;16.936;2023-07-16T02:22:44;21.60;76.50
53904;DHT22;39812;52.430;16.936;2023-07-16T02:25:09;21.60;76.80
53904;DHT22;39812;52.430;16.936;2023-07-16T02:27:35;21.60;77.30
53904;DHT22;39812;52.430;16.936;2023-07-16T02:30:00;21.60;77.50
53904;DHT22;39812;52.430;16.936;2023-07-16T02:32:26;21.50;77.90
53904;DHT22;39812;52.430;16.936;2023-07-16T02:34:51;21.50;78.40
53904;DHT22;39812;52.430;16.936;2023-07-16T02:37:17;21.40;78.60
53904;DHT22;39812;52.430;16.936;2023-07-16T02:39:45;21.40;78.80
53904;DHT22;39812;52.430;16.936;2023-07-16T02:42:13;21.40;79.30
53904;DHT22;39812;52.430;16.936;2023-07-16T02:44:38;21.40;79.80
53904;DHT22;39812;52.430;16.936;2023-07-16T02:47:08;21.60;80.20
53904;DHT22;39812;52.430;16.936;2023-07-16T02:49:34;21.70;80.30
53904;DHT22;39812;52.430;16.936;2023-07-16T02:52:00;21.90;80.20
53904;DHT22;39812;52.430;16.936;2023-07-16T02:54:25;22.00;80.50
53904;DHT22;39812;52.430;16.936;2023-07-16T02:56:51;22.20;80.10
53904;DHT22;39812;52.430;16.936;2023-07-16T02:59:16;22.20;79.90
53904;DHT22;39812;52.430;16.936;2023-07-16T03:01:42;22.20;80.10
53904;DHT22;39812;52.430;16.936;2023-07-16T03:04:08;22.20;80.20
53904;DHT22;39812;52.430;16.936;2023-07-16T03:06:33;22.30;80.40
53904;DHT22;39812;52.430;16.936;2023-07-16T03:08:59;22.30;80.50
53904;DHT22;39812;52.430;16.936;2023-07-16T03:11:25;22.30;80.50
53904;DHT22;39812;52.430;16.936;2023-07-16T03:13:51;22.20;80.70
53904;DHT22;39812;52.430;16.936;2023-07-16T03:16:16;22.20;80.90
53904;DHT22;39812;52.430;16.936;2023-07-16T03:18:42;22.20;80.90
53904;DHT22;39812;52.430;16.936;2023-07-16T03:21:07;22.20;81.80
53904;DHT22;39812;52.430;16.936;2023-07-16T03:23:33;22.20;81.20
53904;DHT22;39812;52.430;16.936;2023-07-16T03:25:59;22.10;81.30
53904;DHT22;39812;52.430;16.936;2023-07-16T03:28:24;22.20;81.70
53904;DHT22;39812;52.430;16.936;2023-07-16T03:30:50;22.20;81.90
53904;DHT22;39812;52.430;16.936;2023-07-16T03:33:17;22.30;82.00
53904;DHT22;39812;52.430;16.936;2023-07-16T03:35:44;22.30;82.10
53904;DHT22;39812;52.430;16.936;2023-07-16T03:38:10;22.40;82.20
53904;DHT22;39812;52.430;16.936;2023-07-16T03:40:36;22.40;82.30
53904;DHT22;39812;52.430;16.936;2023-07-16T03:43:02;22.40;82.60
53904;DHT22;39812;52.430;16.936;2023-07-16T03:45:27;22.50;83.00
53904;DHT22;39812;52.430;16.936;2023-07-16T03:47:53;22.60;83.00
53904;DHT22;39812;52.430;16.936;2023-07-16T03:50:19;22.50;83.20
53904;DHT22;39812;52.430;16.936;2023-07-16T03:52:45;22.60;83.30
53904;DHT22;39812;52.430;16.936;2023-07-16T03:55:11;22.60;83.70
53904;DHT22;39812;52.430;16.936;2023-07-16T03:57:36;22.70;83.60
53904;DHT22;39812;52.430;16.936;2023-07-16T04:00:03;22.80;83.60
53904;DHT22;39812;52.430;16.936;2023-07-16T04:02:31;22.90;83.60
53904;DHT22;39812;52.430;16.936;2023-07-16T04:04:57;22.90;83.50
53904;DHT22;39812;52.430;16.936;2023-07-16T04:07:22;23.00;83.40
53904;DHT22;39812;52.430;16.936;2023-07-16T04:09:49;23.20;82.70
53904;DHT22;39812;52.430;16.936;2023-07-16T04:12:14;23.20;82.40
53904;DHT22;39812;52.430;16.936;2023-07-16T04:14:40;23.30;82.10
53904;DHT22;39812;52.430;16.936;2023-07-16T04:17:05;23.40;81.40
53904;DHT22;39812;52.430;16.936;2023-07-16T04:19:31;23.50;81.00
53904;DHT22;39812;52.430;16.936;2023-07-16T04:21:57;23.50;80.40
53904;DHT22;39812;52.430;16.936;2023-07-16T04:24:22;23.60;79.90
53904;DHT22;39812;52.430;16.936;2023-07-16T04:26:49;23.60;79.60
53904;DHT22;39812;52.430;16.936;2023-07-16T04:29:14;23.60;80.00
53904;DHT22;39812;52.430;16.936;2023-07-16T04:31:41;23.60;79.80
53904;DHT22;39812;52.430;16.936;2023-07-16T04:34:06;23.60;79.80
53904;DHT22;39812;52.430;16.936;2023-07-16T04:36:32;23.60;80.10
53904;DHT22;39812;52.430;16.936;2023-07-16T04:38:57;23.60;80.00
53904;DHT22;39812;52.430;16.936;2023-07-16T04:41:23;23.60;79.80
53904;DHT22;39812;52.430;16.936;2023-07-16T04:43:49;23.70;79.30
53904;DHT22;39812;52.430;16.936;2023-07-16T04:46:14;23.80;79.10
53904;DHT22;39812;52.430;16.936;2023-07-16T04:48:41;23.80;78.60
53904;DHT22;39812;52.430;16.936;2023-07-16T04:51:07;24.00;78.30
53904;DHT22;39812;52.430;16.936;2023-07-16T04:53:33;24.00;78.00
53904;DHT22;39812;52.430;16.936;2023-07-16T04:55:58;24.10;78.10
53904;DHT22;39812;52.430;16.936;2023-07-16T04:58:24;24.20;78.20
53904;DHT22;39812;52.430;16.936;2023-07-16T05:00:49;24.30;78.30
53904;DHT22;39812;52.430;16.936;2023-07-16T05:03:15;24.30;78.20
53904;DHT22;39812;52.430;16.936;2023-07-16T05:05:41;24.40;78.30
53904;DHT22;39812;52.430;16.936;2023-07-16T05:08:06;24.40;78.40
53904;DHT22;39812;52.430;16.936;2023-07-16T05:10:33;24.50;78.40
53904;DHT22;39812;52.430;16.936;2023-07-16T05:12:58;24.60;78.50
53904;DHT22;39812;52.430;16.936;2023-07-16T05:15:24;24.60;78.70
53904;DHT22;39812;52.430;16.936;2023-07-16T05:17:49;24.60;78.70
53904;DHT22;39812;52.430;16.936;2023-07-16T05:20:15;24.70;78.80
53904;DHT22;39812;52.430;16.936;2023-07-16T05:22:41;24.80;78.70
53904;DHT22;39812;52.430;16.936;2023-07-16T05:25:06;24.80;78.50
53904;DHT22;39812;52.430;16.936;2023-07-16T05:27:32;24.90;78.40
53904;DHT22;39812;52.430;16.936;2023-07-16T05:29:58;25.00;78.30
53904;DHT22;39812;52.430;16.936;2023-07-16T05:32:23;25.10;78.40
53904;DHT22;39812;52.430;16.936;2023-07-16T05:34:49;25.10;78.10
53904;DHT22;39812;52.430;16.936;2023-07-16T05:37:15;25.30;78.20
53904;DHT22;39812;52.430;16.936;2023-07-16T05:39:40;25.30;78.20
53904;DHT22;39812;52.430;16.936;2023-07-16T05:42:06;25.40;78.10
53904;DHT22;39812;52.430;16.936;2023-07-16T05:44:32;25.70;77.70
53904;DHT22;39812;52.430;16.936;2023-07-16T05:46:57;25.60;77.80
53904;DHT22;39812;52.430;16.936;2023-07-16T05:49:24;25.80;77.70
53904;DHT22;39812;52.430;16.936;2023-07-16T05:51:51;26.10;76.70
53904;DHT22;39812;52.430;16.936;2023-07-16T05:54:17;26.00;77.00
53904;DHT22;39812;52.430;16.936;2023-07-16T05:56:42;26.00;76.40
53904;DHT22;39812;52.430;16.936;2023-07-16T05:59:08;25.90;76.90
53904;DHT22;39812;52.430;16.936;2023-07-16T06:01:33;26.10;76.70
53904;DHT22;39812;52.430;16.936;2023-07-16T06:03:59;26.00;76.60
53904;DHT22;39812;52.430;16.936;2023-07-16T06:06:27;25.90;76.60
53904;DHT22;39812;52.430;16.936;2023-07-16T06:08:54;25.80;77.00
53904;DHT22;39812;52.430;16.936;2023-07-16T06:11:19;25.80;77.10
53904;DHT22;39812;52.430;16.936;2023-07-16T06:13:46;26.10;76.90
53904;DHT22;39812;52.430;16.936;2023-07-16T06:16:11;26.10;76.50
53904;DHT22;39812;52.430;16.936;2023-07-16T06:18:37;26.10;76.60
53904;DHT22;39812;52.430;16.936;2023-07-16T06:21:02;26.20;76.50
53904;DHT22;39812;52.430;16.936;2023-07-16T06:23:28;26.30;76.10
53904;DHT22;39812;52.430;16.936;2023-07-16T06:25:55;26.30;75.60
53904;DHT22;39812;52.430;16.936;2023-07-16T06:28:20;26.40;75.40
53904;DHT22;39812;52.430;16.936;2023-07-16T06:30:46;26.40;75.60
53904;DHT22;39812;52.430;16.936;2023-07-16T06:33:12;26.30;75.90
53904;DHT22;39812;52.430;16.936;2023-07-16T06:35:37;26.00;76.20
53904;DHT22;39812;52.430;16.936;2023-07-16T06:38:03;26.10;76.10
53904;DHT22;39812;52.430;16.936;2023-07-16T06:40:29;26.30;76.30
53904;DHT22;39812;52.430;16.936;2023-07-16T06:42:56;26.10;75.90
53904;DHT22;39812;52.430;16.936;2023-07-16T06:45:21;26.00;76.80
53904;DHT22;39812;52.430;16.936;2023-07-16T06:47:48;25.90;76.90
53904;DHT22;39812;52.430;16.936;2023-07-16T06:50:14;25.90;77.00
53904;DHT22;39812;52.430;16.936;2023-07-16T06:52:39;25.90;77.00
53904;DHT22;39812;52.430;16.936;2023-07-16T06:55:06;25.80;77.60
53904;DHT22;39812;52.430;16.936;2023-07-16T06:57:32;25.80;77.30
53904;DHT22;39812;52.430;16.936;2023-07-16T06:59:57;25.70;77.60
53904;DHT22;39812;52.430;16.936;2023-07-16T07:02:23;25.60;77.80
53904;DHT22;39812;52.430;16.936;2023-07-16T07:04:49;25.60;77.70
53904;DHT22;39812;52.430;16.936;2023-07-16T07:07:15;25.60;77.50
53904;DHT22;39812;52.430;16.936;2023-07-16T07:09:41;25.50;77.40
53904;DHT22;39812;52.430;16.936;2023-07-16T07:12:07;25.40;77.70
53904;DHT22;39812;52.430;16.936;2023-07-16T07:14:33;25.20;77.90
53904;DHT22;39812;52.430;16.936;2023-07-16T07:16:59;25.20;78.40
53904;DHT22;39812;52.430;16.936;2023-07-16T07:19:24;25.10;78.60
53904;DHT22;39812;52.430;16.936;2023-07-16T07:21:50;25.10;78.50
53904;DHT22;39812;52.430;16.936;2023-07-16T07:24:15;25.10;79.20
53904;DHT22;39812;52.430;16.936;2023-07-16T07:26:41;25.20;79.00
53904;DHT22;39812;52.430;16.936;2023-07-16T07:29:07;25.20;78.90
53904;DHT22;39812;52.430;16.936;2023-07-16T07:31:33;25.40;79.00
53904;DHT22;39812;52.430;16.936;2023-07-16T07:33:58;25.50;78.30
53904;DHT22;39812;52.430;16.936;2023-07-16T07:36:24;26.10;77.60
53904;DHT22;39812;52.430;16.936;2023-07-16T07:38:50;26.60;76.40
53904;DHT22;39812;52.430;16.936;2023-07-16T07:41:16;27.00;75.00
53904;DHT22;39812;52.430;16.936;2023-07-16T07:43:41;27.20;74.80
53904;DHT22;39812;52.430;16.936;2023-07-16T07:46:07;27.40;74.20
53904;DHT22;39812;52.430;16.936;2023-07-16T07:48:32;27.40;73.60
53904;DHT22;39812;52.430;16.936;2023-07-16T07:50:58;28.00;73.30
53904;DHT22;39812;52.430;16.936;2023-07-16T07:53:24;28.20;72.70
53904;DHT22;39812;52.430;16.936;2023-07-16T07:55:49;28.30;71.50
53904;DHT22;39812;52.430;16.936;2023-07-16T07:58:15;27.80;72.10
53904;DHT22;39812;52.430;16.936;2023-07-16T08:00:40;27.30;73.30
53904;DHT22;39812;52.430;16.936;2023-07-16T08:03:06;26.80;73.80
53904;DHT22;39812;52.430;16.936;2023-07-16T08:05:32;26.30;75.40
53904;DHT22;39812;52.430;16.936;2023-07-16T08:07:59;25.90;76.40
53904;DHT22;39812;52.430;16.936;2023-07-16T08:10:24;25.60;76.90
53904;DHT22;39812;52.430;16.936;2023-07-16T08:12:50;25.50;77.80
53904;DHT22;39812;52.430;16.936;2023-07-16T08:15:17;25.30;77.70
53904;DHT22;39812;52.430;16.936;2023-07-16T08:17:44;25.20;77.90
53904;DHT22;39812;52.430;16.936;2023-07-16T08:20:10;25.20;78.70
53904;DHT22;39812;52.430;16.936;2023-07-16T08:22:37;24.90;79.40
53904;DHT22;39812;52.430;16.936;2023-07-16T08:25:03;24.60;80.90
53904;DHT22;39812;52.430;16.936;2023-07-16T08:27:29;24.10;84.10
53904;DHT22;39812;52.430;16.936;2023-07-16T08:29:55;23.80;86.10
53904;DHT22;39812;52.430;16.936;2023-07-16T08:32:21;23.30;90.50
53904;DHT22;39812;52.430;16.936;2023-07-16T08:34:47;22.90;91.50
53904;DHT22;39812;52.430;16.936;2023-07-16T08:37:13;23.00;91.10
53904;DHT22;39812;52.430;16.936;2023-07-16T08:39:39;23.10;91.50
53904;DHT22;39812;52.430;16.936;2023-07-16T08:42:04;23.10;91.70
53904;DHT22;39812;52.430;16.936;2023-07-16T08:44:30;23.10;92.00
53904;DHT22;39812;52.430;16.936;2023-07-16T08:46:56;23.00;92.20
53904;DHT22;39812;52.430;16.936;2023-07-16T08:49:22;23.10;92.20
53904;DHT22;39812;52.430;16.936;2023-07-16T08:51:49;23.00;92.60
53904;DHT22;39812;52.430;16.936;2023-07-16T08:54:15;22.90;92.90
53904;DHT22;39812;52.430;16.936;2023-07-16T08:56:43;23.00;93.20
53904;DHT22;39812;52.430;16.936;2023-07-16T08:59:10;22.80;93.40
53904;DHT22;39812;52.430;16.936;2023-07-16T09:01:37;22.60;94.80
53904;DHT22;39812;52.430;16.936;2023-07-16T09:04:03;22.30;96.30
53904;DHT22;39812;52.430;16.936;2023-07-16T09:06:29;22.00;99.10
53904;DHT22;39812;52.430;16.936;2023-07-16T09:08:55;21.90;99.50
53904;DHT22;39812;52.430;16.936;2023-07-16T09:11:21;22.00;99.90
53904;DHT22;39812;52.430;16.936;2023-07-16T09:13:48;22.00;99.90
53904;DHT22;39812;52.430;16.936;2023-07-16T09:16:14;22.00;99.90
53904;DHT22;39812;52.430;16.936;2023-07-16T09:18:42;22.00;99.90
53904;DHT22;39812;52.430;16.936;2023-07-16T09:21:08;22.00;99.90
53904;DHT22;39812;52.430;16.936;2023-07-16T09:23:34;21.90;99.90
53904;DHT22;39812;52.430;16.936;2023-07-16T09:26:00;21.90;99.90
53904;DHT22;39812;52.430;16.936;2023-07-16T09:28:25;22.20;99.90
53904;DHT22;39812;52.430;16.936;2023-07-16T09:30:52;22.50;99.90
53904;DHT22;39812;52.430;16.936;2023-07-16T09:33:20;23.10;99.90
53904;DHT22;39812;52.430;16.936;2023-07-16T09:35:48;24.20;99.90
53904;DHT22;39812;52.430;16.936;2023-07-16T09:38:14;24.60;99.90
53904;DHT22;39812;52.430;16.936;2023-07-16T09:40:40;24.80;99.30
53904;DHT22;39812;52.430;16.936;2023-07-16T09:43:10;25.10;97.20
53904;DHT22;39812;52.430;16.936;2023-07-16T09:45:36;25.30;95.70
53904;DHT22;39812;52.430;16.936;2023-07-16T09:48:05;25.30;96.00
53904;DHT22;39812;52.430;16.936;2023-07-16T09:50:35;25.50;95.50
53904;DHT22;39812;52.430;16.936;2023-07-16T09:53:01;25.30;95.60
53904;DHT22;39812;52.430;16.936;2023-07-16T09:55:31;25.00;95.60
53904;DHT22;39812;52.430;16.936;2023-07-16T09:58:00;24.80;95.40
53904;DHT22;39812;52.430;16.936;2023-07-16T10:00:27;24.60;96.30
53904;DHT22;39812;52.430;16.936;2023-07-16T10:02:54;24.70;95.20
53904;DHT22;39812;52.430;16.936;2023-07-16T10:05:24;24.90;96.10
53904;DHT22;39812;52.430;16.936;2023-07-16T10:07:52;25.30;95.50
53904;DHT22;39812;52.430;16.936;2023-07-16T10:10:19;25.20;94.50
53904;DHT22;39812;52.430;16.936;2023-07-16T10:13:01;25.10;94.60
53904;DHT22;39812;52.430;16.936;2023-07-16T10:15:28;24.90;94.80
53904;DHT22;39812;52.430;16.936;2023-07-16T10:17:55;24.90;94.90
53904;DHT22;39812;52.430;16.936;2023-07-16T10:20:32;24.90;94.50
53904;DHT22;39812;52.430;16.936;2023-07-16T10:22:58;25.00;94.60
53904;DHT22;39812;52.430;16.936;2023-07-16T10:25:35;24.90;94.90
53904;DHT22;39812;52.430;16.936;2023-07-16T10:28:00;24.80;93.80
53904;DHT22;39812;52.430;16.936;2023-07-16T10:30:26;25.00;94.30
53904;DHT22;39812;52.430;16.936;2023-07-16T10:32:51;25.20;93.60
53904;DHT22;39812;52.430;16.936;2023-07-16T10:35:21;25.40;93.50
53904;DHT22;39812;52.430;16.936;2023-07-16T10:37:46;25.50;93.00
53904;DHT22;39812;52.430;16.936;2023-07-16T10:40:13;25.50;92.80
53904;DHT22;39812;52.430;16.936;2023-07-16T10:42:41;25.30;92.00
53904;DHT22;39812;52.430;16.936;2023-07-16T10:45:08;25.40;92.20
53904;DHT22;39812;52.430;16.936;2023-07-16T10:47:39;25.60;91.80
53904;DHT22;39812;52.430;16.936;2023-07-16T10:50:07;25.80;92.10
53904;DHT22;39812;52.430;16.936;2023-07-16T10:52:34;25.80;92.10
53904;DHT22;39812;52.430;16.936;2023-07-16T10:55:00;26.10;91.20
53904;DHT22;39812;52.430;16.936;2023-07-16T10:57:26;26.20;90.70
53904;DHT22;39812;52.430;16.936;2023-07-16T10:59:53;26.40;89.80
53904;DHT22;39812;52.430;16.936;2023-07-16T11:02:21;26.70;89.90
53904;DHT22;39812;52.430;16.936;2023-07-16T11:04:47;27.20;89.00
53904;DHT22;39812;52.430;16.936;2023-07-16T11:07:14;27.20;88.10
53904;DHT22;39812;52.430;16.936;2023-07-16T11:09:46;27.80;85.90
53904;DHT22;39812;52.430;16.936;2023-07-16T11:12:14;28.10;84.70
53904;DHT22;39812;52.430;16.936;2023-07-16T11:14:58;28.80;82.70
53904;DHT22;39812;52.430;16.936;2023-07-16T11:17:24;29.20;81.60
53904;DHT22;39812;52.430;16.936;2023-07-16T11:19:51;29.40;79.50
53904;DHT22;39812;52.430;16.936;2023-07-16T11:22:17;29.70;78.20
53904;DHT22;39812;52.430;16.936;2023-07-16T11:24:50;29.90;76.00
53904;DHT22;39812;52.430;16.936;2023-07-16T11:29:53;29.30;77.10
53904;DHT22;39812;52.430;16.936;2023-07-16T11:34:59;30.00;75.10
53904;DHT22;39812;52.430;16.936;2023-07-16T11:37:27;30.70;73.80
53904;DHT22;39812;52.430;16.936;2023-07-16T11:40:06;32.60;71.80
53904;DHT22;39812;52.430;16.936;2023-07-16T11:42:36;34.30;67.90
53904;DHT22;39812;52.430;16.936;2023-07-16T11:45:03;34.00;66.10
53904;DHT22;39812;52.430;16.936;2023-07-16T11:47:29;34.10;65.30
53904;DHT22;39812;52.430;16.936;2023-07-16T11:49:56;32.30;66.20
53904;DHT22;39812;52.430;16.936;2023-07-16T11:52:25;31.80;68.20
53904;DHT22;39812;52.430;16.936;2023-07-16T11:54:52;31.80;69.40
53904;DHT22;39812;52.430;16.936;2023-07-16T11:57:18;31.80;68.10
53904;DHT22;39812;52.430;16.936;2023-07-16T11:59:43;30.70;68.70
53904;DHT22;39812;52.430;16.936;2023-07-16T12:02:09;30.20;70.70
53904;DHT22;39812;52.430;16.936;2023-07-16T12:04:35;30.10;71.00
53904;DHT22;39812;52.430;16.936;2023-07-16T12:07:00;30.90;70.20
53904;DHT22;39812;52.430;16.936;2023-07-16T12:09:26;31.00;68.50
53904;DHT22;39812;52.430;16.936;2023-07-16T12:11:51;32.00;68.20
53904;DHT22;39812;52.430;16.936;2023-07-16T12:14:17;33.50;65.60
53904;DHT22;39812;52.430;16.936;2023-07-16T12:16:43;32.00;66.40
53904;DHT22;39812;52.430;16.936;2023-07-16T12:19:09;31.40;68.30
53904;DHT22;39812;52.430;16.936;2023-07-16T12:21:35;31.10;69.90
53904;DHT22;39812;52.430;16.936;2023-07-16T12:24:01;31.60;69.10
53904;DHT22;39812;52.430;16.936;2023-07-16T12:26:27;31.50;67.80
53904;DHT22;39812;52.430;16.936;2023-07-16T12:28:53;31.30;68.20
53904;DHT22;39812;52.430;16.936;2023-07-16T12:31:19;30.80;69.30
53904;DHT22;39812;52.430;16.936;2023-07-16T12:33:46;31.50;69.80
53904;DHT22;39812;52.430;16.936;2023-07-16T12:36:12;31.30;68.50
53904;DHT22;39812;52.430;16.936;2023-07-16T12:38:38;32.30;66.00
53904;DHT22;39812;52.430;16.936;2023-07-16T12:41:04;33.70;64.10
53904;DHT22;39812;52.430;16.936;2023-07-16T12:43:30;34.50;62.20
53904;DHT22;39812;52.430;16.936;2023-07-16T12:46:02;35.80;60.50
53904;DHT22;39812;52.430;16.936;2023-07-16T12:48:31;36.90;58.60
53904;DHT22;39812;52.430;16.936;2023-07-16T12:50:56;38.10;56.80
53904;DHT22;39812;52.430;16.936;2023-07-16T12:53:23;38.50;56.00
53904;DHT22;39812;52.430;16.936;2023-07-16T12:55:48;35.70;57.10
53904;DHT22;39812;52.430;16.936;2023-07-16T12:58:14;33.60;60.50
53904;DHT22;39812;52.430;16.936;2023-07-16T13:00:40;36.10;58.00
53904;DHT22;39812;52.430;16.936;2023-07-16T13:03:06;35.20;56.20
53904;DHT22;39812;52.430;16.936;2023-07-16T13:05:33;33.10;58.70
53904;DHT22;39812;52.430;16.936;2023-07-16T13:07:59;34.30;59.20
53904;DHT22;39812;52.430;16.936;2023-07-16T13:10:24;36.50;57.00
53904;DHT22;39812;52.430;16.936;2023-07-16T13:12:50;38.10;53.50
53904;DHT22;39812;52.430;16.936;2023-07-16T13:15:15;38.60;52.40
53904;DHT22;39812;52.430;16.936;2023-07-16T13:17:41;39.30;52.40
53904;DHT22;39812;52.430;16.936;2023-07-16T13:20:07;40.40;51.00
53904;DHT22;39812;52.430;16.936;2023-07-16T13:22:33;40.80;49.00
53904;DHT22;39812;52.430;16.936;2023-07-16T13:24:58;39.40;49.50
53904;DHT22;39812;52.430;16.936;2023-07-16T13:27:25;39.30;50.70
53904;DHT22;39812;52.430;16.936;2023-07-16T13:29:50;38.80;49.40
53904;DHT22;39812;52.430;16.936;2023-07-16T13:32:16;39.60;49.80
53904;DHT22;39812;52.430;16.936;2023-07-16T13:34:42;38.90;50.20
53904;DHT22;39812;52.430;16.936;2023-07-16T13:37:08;37.60;49.80
53904;DHT22;39812;52.430;16.936;2023-07-16T13:39:33;37.40;51.60
53904;DHT22;39812;52.430;16.936;2023-07-16T13:41:59;39.40;50.90
53904;DHT22;39812;52.430;16.936;2023-07-16T13:44:24;40.10;48.60
53904;DHT22;39812;52.430;16.936;2023-07-16T13:46:50;39.40;49.00
53904;DHT22;39812;52.430;16.936;2023-07-16T13:49:15;37.30;49.20
53904;DHT22;39812;52.430;16.936;2023-07-16T13:51:41;34.30;53.80
53904;DHT22;39812;52.430;16.936;2023-07-16T13:54:07;36.70;52.60
53904;DHT22;39812;52.430;16.936;2023-07-16T13:56:32;38.90;50.40
53904;DHT22;39812;52.430;16.936;2023-07-16T13:58:58;40.70;48.30
53904;DHT22;39812;52.430;16.936;2023-07-16T14:01:24;37.90;48.90
53904;DHT22;39812;52.430;16.936;2023-07-16T14:03:50;35.60;52.40
53904;DHT22;39812;52.430;16.936;2023-07-16T14:06:15;33.40;55.30
53904;DHT22;39812;52.430;16.936;2023-07-16T14:08:41;34.60;56.00
53904;DHT22;39812;52.430;16.936;2023-07-16T14:11:06;37.00;52.60
53904;DHT22;39812;52.430;16.936;2023-07-16T14:13:32;39.60;49.90
53904;DHT22;39812;52.430;16.936;2023-07-16T14:15:58;38.70;48.60
53904;DHT22;39812;52.430;16.936;2023-07-16T14:18:23;36.40;52.00
53904;DHT22;39812;52.430;16.936;2023-07-16T14:20:49;34.50;55.00
53904;DHT22;39812;52.430;16.936;2023-07-16T14:23:15;34.10;56.10
53904;DHT22;39812;52.430;16.936;2023-07-16T14:25:40;35.20;55.40
53904;DHT22;39812;52.430;16.936;2023-07-16T14:28:06;34.70;56.10
53904;DHT22;39812;52.430;16.936;2023-07-16T14:30:32;35.30;56.50
53904;DHT22;39812;52.430;16.936;2023-07-16T14:32:57;36.30;55.10
53904;DHT22;39812;52.430;16.936;2023-07-16T14:35:24;35.30;55.60
53904;DHT22;39812;52.430;16.936;2023-07-16T14:37:50;36.80;55.40
53904;DHT22;39812;52.430;16.936;2023-07-16T14:40:16;36.90;54.00
53904;DHT22;39812;52.430;16.936;2023-07-16T14:42:42;35.00;54.20
53904;DHT22;39812;52.430;16.936;2023-07-16T14:45:09;34.30;56.50
53904;DHT22;39812;52.430;16.936;2023-07-16T14:47:34;34.90;57.10
53904;DHT22;39812;52.430;16.936;2023-07-16T14:50:00;39.00;53.50
53904;DHT22;39812;52.430;16.936;2023-07-16T14:52:26;42.40;49.50
53904;DHT22;39812;52.430;16.936;2023-07-16T14:54:51;40.60;48.30
53904;DHT22;39812;52.430;16.936;2023-07-16T14:57:17;39.90;50.90
53904;DHT22;39812;52.430;16.936;2023-07-16T14:59:43;39.90;50.50
53904;DHT22;39812;52.430;16.936;2023-07-16T15:02:09;39.40;50.40
53904;DHT22;39812;52.430;16.936;2023-07-16T15:04:34;41.10;49.00
53904;DHT22;39812;52.430;16.936;2023-07-16T15:07:00;42.60;47.30
53904;DHT22;39812;52.430;16.936;2023-07-16T15:09:26;44.20;45.70
53904;DHT22;39812;52.430;16.936;2023-07-16T15:11:52;40.00;47.10
53904;DHT22;39812;52.430;16.936;2023-07-16T15:14:17;39.70;49.70
53904;DHT22;39812;52.430;16.936;2023-07-16T15:16:43;40.70;48.20
53904;DHT22;39812;52.430;16.936;2023-07-16T15:19:09;40.20;47.20
53904;DHT22;39812;52.430;16.936;2023-07-16T15:21:35;42.00;46.60